Merida, Mexico

8:32 PM EST on July 31, 2015 (GMT -0500)
Chuburna Merida Yuc | | Change Station
CLOSE
Current Station
Personal Weather Station
Location: Merida, YUCATAN
Elevation: 26 ft
Nearby Weather Stations

Elev 26 ft 21.02 °N, 89.64 °W | Updated 7 seconds ago

Partly Cloudy
Partly Cloudy
83.5 °F
Feels Like 91 °F
N
5.0
Wind Variable Wind from NNE
Gusts 6.0 mph

Today
High -- | Low -- °F
--% Chance of Precip.
Yesterday
High -- | Low -- °F
Precip. -- in
6:32 AM 7:37 PM
Waxing Gibbous, 99% visible
Pressure 29.96 in
Visibility 7.0 miles
Clouds Few 30000 ft
Heat Index 91 °F
Dew Point 75 °F
Humidity 75%
Rainfall 0.00 in
Snow Depth Not available.
UV 0.0 out of 12
Pollen Not available.
Air Quality Not available.
Flu Activity Not available.
METAR MMMD 010042Z 36005KT 7SM FEW300 29/22 A2996 RMK 8/008

More Conditions Fewer Conditions

Pressure 29.96 in
Visibility 7.0 miles
Clouds Few 30000 ft
Heat Index 91 °F
Dew Point 75 °F
Humidity 75%
Rainfall 0.00 in
Snow Depth Not available.
UV 0.0 out of 12
Pollen Not available.
Air Quality Not available.
Flu Activity Not available.
METAR MMMD 010042Z 36005KT 7SM FEW300 29/22 A2996 RMK 8/008

More Conditions Fewer Conditions

10-Day Weather Forecast

×

Almanac

Astronomy

Jul. 31, 2015 Rise Set
Actual Time
Civil Twilight
Nautical Twilight
Astronomical Twilight
Moon
Length of Visible Light
Length of Day
Tomorrow will be .
, % of the Moon is Illuminated

Today's Extremes

Country Highs Country Lows

Community

WunderPhotos

Upload Photos

1,842,799 photos uploaded!

WunderBlogs® & News

Nearby

Air Quality

  Air Quality AQ Index Pollutant
Not available.

Snow Depth

Station Depth Elevation

Earthquake Activity

City Distance Mag. Time & Date
Minimum magnitude displayed is 2.5.

Coastal Water Temperatures

Place Temperature

Stations

Nearby Weather Stations

Station Location Temp. Windchill Dew Point Humidity Wind Precip. Elev Updated Type